Lake Sherwood, Missouri
Current Conditions -  °F | °C
As of 11:55 AM on Tuesday 21 Oct 2014 (Local Time) from KFYG Reporting Station
Clear Clear  
Wind Chill: 64°   Ceiling: Unl
Heat Index: 64°   Visibility: 10mi
Dew Point: 46°   Wind: 3mph
Humidity: 52%   Direction: 350°N
Pressure: 30.13"   Gusts: NA
Location:  38.6485°N, 91.0773°W
Report Text: KFYG 211655Z AUTO 35003KT 10SM CLR 18/08 A3013 RMK AO2
Loading
Personal Weather Stations






























Interactive Weather Map
Tropical Storm Tracking
New forecast layout! Learn more

10-Day Weather Forecast

Advertisements
Track Severe Weather on mobile